sensor_id;sensor_type;location;lat;lon;timestamp;P1;durP1;ratioP1;P2;durP2;ratioP2
6523;SDS011;3295;38.928;-77.052;2023-08-07T00:01:39;3.77;;;1.87;;
6523;SDS011;3295;38.928;-77.052;2023-08-07T00:04:07;6.00;;;2.10;;
6523;SDS011;3295;38.928;-77.052;2023-08-07T00:06:34;5.37;;;2.47;;
6523;SDS011;3295;38.928;-77.052;2023-08-07T00:09:01;4.40;;;2.17;;
6523;SDS011;3295;38.928;-77.052;2023-08-07T00:11:31;4.80;;;2.10;;
6523;SDS011;3295;38.928;-77.052;2023-08-07T00:13:58;3.13;;;2.10;;
6523;SDS011;3295;38.928;-77.052;2023-08-07T00:16:26;5.07;;;2.40;;
6523;SDS011;3295;38.928;-77.052;2023-08-07T00:18:53;5.53;;;2.83;;
6523;SDS011;3295;38.928;-77.052;2023-08-07T00:21:21;2.60;;;1.87;;
6523;SDS011;3295;38.928;-77.052;2023-08-07T00:23:48;3.83;;;2.00;;
6523;SDS011;3295;38.928;-77.052;2023-08-07T00:26:16;3.03;;;1.87;;
6523;SDS011;3295;38.928;-77.052;2023-08-07T00:28:45;3.80;;;2.10;;
6523;SDS011;3295;38.928;-77.052;2023-08-07T00:31:12;4.23;;;1.90;;
6523;SDS011;3295;38.928;-77.052;2023-08-07T00:33:39;3.77;;;2.30;;
6523;SDS011;3295;38.928;-77.052;2023-08-07T00:36:07;5.30;;;2.57;;
6523;SDS011;3295;38.928;-77.052;2023-08-07T00:38:34;7.00;;;3.10;;
6523;SDS011;3295;38.928;-77.052;2023-08-07T00:41:01;6.50;;;3.20;;
6523;SDS011;3295;38.928;-77.052;2023-08-07T00:43:29;6.27;;;2.87;;
6523;SDS011;3295;38.928;-77.052;2023-08-07T00:45:58;6.43;;;3.50;;
6523;SDS011;3295;38.928;-77.052;2023-08-07T00:48:25;9.30;;;4.57;;
6523;SDS011;3295;38.928;-77.052;2023-08-07T00:50:52;6.97;;;4.13;;
6523;SDS011;3295;38.928;-77.052;2023-08-07T00:53:20;9.73;;;4.67;;
6523;SDS011;3295;38.928;-77.052;2023-08-07T00:55:48;10.93;;;5.10;;
6523;SDS011;3295;38.928;-77.052;2023-08-07T00:58:16;11.40;;;5.67;;
6523;SDS011;3295;38.928;-77.052;2023-08-07T01:00:43;10.93;;;5.87;;
6523;SDS011;3295;38.928;-77.052;2023-08-07T01:03:12;11.93;;;5.80;;
6523;SDS011;3295;38.928;-77.052;2023-08-07T01:05:40;14.07;;;6.57;;
6523;SDS011;3295;38.928;-77.052;2023-08-07T01:08:07;11.63;;;6.53;;
6523;SDS011;3295;38.928;-77.052;2023-08-07T01:10:37;15.23;;;6.97;;
6523;SDS011;3295;38.928;-77.052;2023-08-07T01:13:11;13.63;;;7.00;;
6523;SDS011;3295;38.928;-77.052;2023-08-07T01:15:40;14.57;;;6.97;;
6523;SDS011;3295;38.928;-77.052;2023-08-07T01:18:07;17.43;;;7.27;;
6523;SDS011;3295;38.928;-77.052;2023-08-07T01:20:36;15.73;;;7.73;;
6523;SDS011;3295;38.928;-77.052;2023-08-07T01:23:05;14.57;;;8.30;;
6523;SDS011;3295;38.928;-77.052;2023-08-07T01:25:32;15.37;;;8.13;;
6523;SDS011;3295;38.928;-77.052;2023-08-07T01:28:02;14.93;;;8.23;;
6523;SDS011;3295;38.928;-77.052;2023-08-07T01:30:34;15.87;;;8.40;;
6523;SDS011;3295;38.928;-77.052;2023-08-07T01:33:06;17.83;;;8.27;;
6523;SDS011;3295;38.928;-77.052;2023-08-07T01:35:38;15.43;;;7.80;;
6523;SDS011;3295;38.928;-77.052;2023-08-07T01:38:09;16.93;;;8.10;;
6523;SDS011;3295;38.928;-77.052;2023-08-07T01:40:37;16.53;;;8.00;;
6523;SDS011;3295;38.928;-77.052;2023-08-07T01:43:06;15.07;;;8.07;;
6523;SDS011;3295;38.928;-77.052;2023-08-07T01:45:33;15.63;;;8.10;;
6523;SDS011;3295;38.928;-77.052;2023-08-07T01:48:00;16.53;;;8.40;;
6523;SDS011;3295;38.928;-77.052;2023-08-07T01:50:28;17.10;;;8.63;;
6523;SDS011;3295;38.928;-77.052;2023-08-07T01:52:56;13.93;;;7.33;;
6523;SDS011;3295;38.928;-77.052;2023-08-07T01:55:24;18.43;;;8.77;;
6523;SDS011;3295;38.928;-77.052;2023-08-07T01:57:52;16.90;;;8.07;;
6523;SDS011;3295;38.928;-77.052;2023-08-07T02:00:19;16.90;;;8.57;;
6523;SDS011;3295;38.928;-77.052;2023-08-07T02:02:46;18.77;;;8.97;;
6523;SDS011;3295;38.928;-77.052;2023-08-07T02:05:14;16.60;;;8.53;;
6523;SDS011;3295;38.928;-77.052;2023-08-07T02:07:41;16.93;;;8.70;;
6523;SDS011;3295;38.928;-77.052;2023-08-07T02:10:09;19.37;;;8.93;;
6523;SDS011;3295;38.928;-77.052;2023-08-07T02:12:38;17.70;;;9.27;;
6523;SDS011;3295;38.928;-77.052;2023-08-07T02:15:06;17.23;;;8.50;;
6523;SDS011;3295;38.928;-77.052;2023-08-07T02:17:34;16.33;;;8.30;;
6523;SDS011;3295;38.928;-77.052;2023-08-07T02:20:04;16.00;;;7.83;;
6523;SDS011;3295;38.928;-77.052;2023-08-07T02:22:32;17.80;;;8.93;;
6523;SDS011;3295;38.928;-77.052;2023-08-07T02:24:59;17.40;;;8.87;;
6523;SDS011;3295;38.928;-77.052;2023-08-07T02:27:26;15.97;;;8.50;;
6523;SDS011;3295;38.928;-77.052;2023-08-07T02:29:55;17.43;;;8.47;;
6523;SDS011;3295;38.928;-77.052;2023-08-07T02:32:22;17.53;;;8.37;;
6523;SDS011;3295;38.928;-77.052;2023-08-07T02:34:50;14.93;;;7.57;;
6523;SDS011;3295;38.928;-77.052;2023-08-07T02:37:17;15.20;;;7.77;;
6523;SDS011;3295;38.928;-77.052;2023-08-07T02:39:46;15.67;;;7.77;;
6523;SDS011;3295;38.928;-77.052;2023-08-07T02:42:13;16.27;;;8.60;;
6523;SDS011;3295;38.928;-77.052;2023-08-07T02:44:40;19.27;;;8.53;;
6523;SDS011;3295;38.928;-77.052;2023-08-07T02:47:09;17.10;;;8.90;;
6523;SDS011;3295;38.928;-77.052;2023-08-07T02:49:36;15.37;;;7.97;;
6523;SDS011;3295;38.928;-77.052;2023-08-07T02:52:04;19.27;;;8.77;;
6523;SDS011;3295;38.928;-77.052;2023-08-07T02:54:31;16.90;;;8.50;;
6523;SDS011;3295;38.928;-77.052;2023-08-07T02:56:58;16.33;;;8.10;;
6523;SDS011;3295;38.928;-77.052;2023-08-07T02:59:26;16.27;;;7.93;;
6523;SDS011;3295;38.928;-77.052;2023-08-07T03:01:53;16.93;;;8.27;;
6523;SDS011;3295;38.928;-77.052;2023-08-07T03:04:22;16.70;;;7.90;;
6523;SDS011;3295;38.928;-77.052;2023-08-07T03:06:50;17.77;;;8.90;;
6523;SDS011;3295;38.928;-77.052;2023-08-07T03:09:17;17.20;;;8.60;;
6523;SDS011;3295;38.928;-77.052;2023-08-07T03:11:44;18.80;;;8.50;;
6523;SDS011;3295;38.928;-77.052;2023-08-07T03:14:12;16.63;;;7.77;;
6523;SDS011;3295;38.928;-77.052;2023-08-07T03:16:39;15.90;;;8.23;;
6523;SDS011;3295;38.928;-77.052;2023-08-07T03:19:07;15.50;;;8.17;;
6523;SDS011;3295;38.928;-77.052;2023-08-07T03:21:35;17.27;;;8.40;;
6523;SDS011;3295;38.928;-77.052;2023-08-07T03:24:04;17.00;;;8.20;;
6523;SDS011;3295;38.928;-77.052;2023-08-07T03:26:31;16.10;;;8.03;;
6523;SDS011;3295;38.928;-77.052;2023-08-07T03:28:58;16.77;;;8.40;;
6523;SDS011;3295;38.928;-77.052;2023-08-07T03:31:25;16.80;;;7.33;;
6523;SDS011;3295;38.928;-77.052;2023-08-07T03:33:52;12.67;;;6.80;;
6523;SDS011;3295;38.928;-77.052;2023-08-07T03:36:20;13.87;;;7.27;;
6523;SDS011;3295;38.928;-77.052;2023-08-07T03:38:49;13.53;;;7.07;;
6523;SDS011;3295;38.928;-77.052;2023-08-07T03:41:16;14.53;;;7.20;;
6523;SDS011;3295;38.928;-77.052;2023-08-07T03:43:43;13.30;;;7.33;;
6523;SDS011;3295;38.928;-77.052;2023-08-07T03:46:10;15.67;;;7.30;;
6523;SDS011;3295;38.928;-77.052;2023-08-07T03:48:38;12.73;;;6.93;;
6523;SDS011;3295;38.928;-77.052;2023-08-07T03:51:05;14.63;;;7.57;;
6523;SDS011;3295;38.928;-77.052;2023-08-07T03:53:38;14.67;;;7.43;;
6523;SDS011;3295;38.928;-77.052;2023-08-07T03:56:07;13.07;;;6.70;;
6523;SDS011;3295;38.928;-77.052;2023-08-07T03:58:34;13.10;;;6.77;;
6523;SDS011;3295;38.928;-77.052;2023-08-07T04:01:01;14.07;;;7.60;;
6523;SDS011;3295;38.928;-77.052;2023-08-07T04:03:28;12.93;;;7.00;;
6523;SDS011;3295;38.928;-77.052;2023-08-07T04:05:56;13.87;;;6.97;;
6523;SDS011;3295;38.928;-77.052;2023-08-07T04:08:23;11.03;;;5.57;;
6523;SDS011;3295;38.928;-77.052;2023-08-07T04:10:59;12.47;;;6.47;;
6523;SDS011;3295;38.928;-77.052;2023-08-07T04:13:29;13.27;;;6.30;;
6523;SDS011;3295;38.928;-77.052;2023-08-07T04:15:56;10.00;;;5.60;;
6523;SDS011;3295;38.928;-77.052;2023-08-07T04:18:23;10.03;;;5.23;;
6523;SDS011;3295;38.928;-77.052;2023-08-07T04:23:18;9.70;;;5.40;;
6523;SDS011;3295;38.928;-77.052;2023-08-07T04:25:46;11.67;;;5.80;;
6523;SDS011;3295;38.928;-77.052;2023-08-07T04:28:14;9.67;;;5.20;;
6523;SDS011;3295;38.928;-77.052;2023-08-07T04:30:43;11.17;;;5.27;;
6523;SDS011;3295;38.928;-77.052;2023-08-07T04:33:11;11.13;;;5.27;;
6523;SDS011;3295;38.928;-77.052;2023-08-07T04:35:38;11.03;;;4.97;;
6523;SDS011;3295;38.928;-77.052;2023-08-07T04:38:05;13.03;;;6.00;;
6523;SDS011;3295;38.928;-77.052;2023-08-07T04:40:32;9.20;;;4.93;;
6523;SDS011;3295;38.928;-77.052;2023-08-07T04:43:00;11.20;;;5.23;;
6523;SDS011;3295;38.928;-77.052;2023-08-07T04:45:27;8.10;;;4.57;;
6523;SDS011;3295;38.928;-77.052;2023-08-07T04:47:56;8.90;;;4.67;;
6523;SDS011;3295;38.928;-77.052;2023-08-07T04:50:23;9.30;;;4.93;;
6523;SDS011;3295;38.928;-77.052;2023-08-07T04:52:50;8.83;;;4.87;;
6523;SDS011;3295;38.928;-77.052;2023-08-07T04:55:18;9.43;;;5.00;;
6523;SDS011;3295;38.928;-77.052;2023-08-07T04:57:45;7.50;;;4.70;;
6523;SDS011;3295;38.928;-77.052;2023-08-07T05:00:13;8.07;;;4.37;;
6523;SDS011;3295;38.928;-77.052;2023-08-07T05:02:40;9.57;;;4.83;;
6523;SDS011;3295;38.928;-77.052;2023-08-07T05:05:10;7.83;;;4.13;;
6523;SDS011;3295;38.928;-77.052;2023-08-07T05:07:40;8.57;;;5.07;;
6523;SDS011;3295;38.928;-77.052;2023-08-07T05:10:08;9.80;;;4.67;;
6523;SDS011;3295;38.928;-77.052;2023-08-07T05:12:35;8.27;;;4.13;;
6523;SDS011;3295;38.928;-77.052;2023-08-07T05:15:03;8.10;;;4.50;;
6523;SDS011;3295;38.928;-77.052;2023-08-07T05:17:30;7.60;;;4.17;;
6523;SDS011;3295;38.928;-77.052;2023-08-07T05:19:57;11.00;;;5.00;;
6523;SDS011;3295;38.928;-77.052;2023-08-07T05:22:26;6.13;;;3.73;;
6523;SDS011;3295;38.928;-77.052;2023-08-07T05:24:54;7.47;;;4.40;;
6523;SDS011;3295;38.928;-77.052;2023-08-07T05:27:21;7.00;;;4.30;;
6523;SDS011;3295;38.928;-77.052;2023-08-07T05:29:49;8.93;;;4.67;;
6523;SDS011;3295;38.928;-77.052;2023-08-07T05:32:16;6.93;;;4.07;;
6523;SDS011;3295;38.928;-77.052;2023-08-07T05:34:43;9.20;;;3.90;;
6523;SDS011;3295;38.928;-77.052;2023-08-07T05:37:10;7.23;;;4.10;;
6523;SDS011;3295;38.928;-77.052;2023-08-07T05:39:39;6.70;;;3.93;;
6523;SDS011;3295;38.928;-77.052;2023-08-07T05:42:07;6.97;;;4.10;;
6523;SDS011;3295;38.928;-77.052;2023-08-07T05:44:35;8.77;;;4.40;;
6523;SDS011;3295;38.928;-77.052;2023-08-07T05:47:02;10.03;;;3.87;;
6523;SDS011;3295;38.928;-77.052;2023-08-07T05:49:30;7.30;;;3.80;;
6523;SDS011;3295;38.928;-77.052;2023-08-07T05:51:57;7.73;;;4.40;;
6523;SDS011;3295;38.928;-77.052;2023-08-07T05:54:24;7.90;;;4.43;;
6523;SDS011;3295;38.928;-77.052;2023-08-07T05:56:53;8.13;;;4.10;;
6523;SDS011;3295;38.928;-77.052;2023-08-07T05:59:20;8.27;;;4.40;;
6523;SDS011;3295;38.928;-77.052;2023-08-07T06:01:47;7.13;;;4.00;;
6523;SDS011;3295;38.928;-77.052;2023-08-07T06:04:15;8.20;;;4.20;;
6523;SDS011;3295;38.928;-77.052;2023-08-07T06:06:42;7.17;;;3.90;;
6523;SDS011;3295;38.928;-77.052;2023-08-07T06:09:11;9.30;;;4.50;;
6523;SDS011;3295;38.928;-77.052;2023-08-07T06:11:40;7.77;;;4.27;;
6523;SDS011;3295;38.928;-77.052;2023-08-07T06:14:09;8.37;;;4.37;;
6523;SDS011;3295;38.928;-77.052;2023-08-07T06:16:36;10.23;;;4.00;;
6523;SDS011;3295;38.928;-77.052;2023-08-07T06:19:03;8.40;;;4.43;;
6523;SDS011;3295;38.928;-77.052;2023-08-07T06:21:30;7.47;;;4.10;;
6523;SDS011;3295;38.928;-77.052;2023-08-07T06:23:58;10.10;;;4.33;;
6523;SDS011;3295;38.928;-77.052;2023-08-07T06:26:25;6.80;;;3.97;;
6523;SDS011;3295;38.928;-77.052;2023-08-07T06:28:53;9.47;;;4.80;;
6523;SDS011;3295;38.928;-77.052;2023-08-07T06:31:21;8.40;;;4.53;;
6523;SDS011;3295;38.928;-77.052;2023-08-07T06:33:49;7.57;;;4.37;;
6523;SDS011;3295;38.928;-77.052;2023-08-07T06:36:16;7.90;;;4.27;;
6523;SDS011;3295;38.928;-77.052;2023-08-07T06:38:43;8.33;;;4.40;;
6523;SDS011;3295;38.928;-77.052;2023-08-07T06:41:11;8.93;;;4.70;;
6523;SDS011;3295;38.928;-77.052;2023-08-07T06:43:38;7.07;;;4.13;;
6523;SDS011;3295;38.928;-77.052;2023-08-07T06:46:05;7.93;;;3.97;;
6523;SDS011;3295;38.928;-77.052;2023-08-07T06:48:34;9.53;;;4.50;;
6523;SDS011;3295;38.928;-77.052;2023-08-07T06:51:02;9.00;;;4.30;;
6523;SDS011;3295;38.928;-77.052;2023-08-07T06:53:29;8.13;;;4.10;;
6523;SDS011;3295;38.928;-77.052;2023-08-07T06:55:56;7.80;;;4.60;;
6523;SDS011;3295;38.928;-77.052;2023-08-07T06:58:23;10.63;;;4.43;;
6523;SDS011;3295;38.928;-77.052;2023-08-07T07:00:51;10.00;;;4.50;;
6523;SDS011;3295;38.928;-77.052;2023-08-07T07:03:18;9.30;;;4.70;;
6523;SDS011;3295;38.928;-77.052;2023-08-07T07:05:48;6.80;;;4.33;;
6523;SDS011;3295;38.928;-77.052;2023-08-07T07:08:15;10.80;;;4.73;;
6523;SDS011;3295;38.928;-77.052;2023-08-07T07:10:43;9.93;;;4.90;;
6523;SDS011;3295;38.928;-77.052;2023-08-07T07:13:10;7.83;;;4.50;;
6523;SDS011;3295;38.928;-77.052;2023-08-07T07:15:37;10.23;;;4.87;;
6523;SDS011;3295;38.928;-77.052;2023-08-07T07:18:04;9.30;;;4.73;;
6523;SDS011;3295;38.928;-77.052;2023-08-07T07:20:32;7.47;;;4.30;;
6523;SDS011;3295;38.928;-77.052;2023-08-07T07:23:00;7.70;;;4.30;;
6523;SDS011;3295;38.928;-77.052;2023-08-07T07:25:28;8.27;;;4.67;;
6523;SDS011;3295;38.928;-77.052;2023-08-07T07:27:55;8.33;;;4.40;;
6523;SDS011;3295;38.928;-77.052;2023-08-07T07:30:22;7.93;;;4.70;;
6523;SDS011;3295;38.928;-77.052;2023-08-07T07:32:49;10.30;;;4.93;;
6523;SDS011;3295;38.928;-77.052;2023-08-07T07:35:17;8.83;;;4.70;;
6523;SDS011;3295;38.928;-77.052;2023-08-07T07:37:44;7.57;;;4.37;;
6523;SDS011;3295;38.928;-77.052;2023-08-07T07:40:13;8.23;;;4.60;;
6523;SDS011;3295;38.928;-77.052;2023-08-07T07:42:41;6.90;;;4.20;;
6523;SDS011;3295;38.928;-77.052;2023-08-07T07:45:11;8.83;;;4.60;;
6523;SDS011;3295;38.928;-77.052;2023-08-07T07:47:38;7.50;;;4.50;;
6523;SDS011;3295;38.928;-77.052;2023-08-07T07:50:06;8.00;;;4.57;;
6523;SDS011;3295;38.928;-77.052;2023-08-07T07:52:34;7.93;;;4.17;;
6523;SDS011;3295;38.928;-77.052;2023-08-07T07:55:01;7.43;;;4.27;;
6523;SDS011;3295;38.928;-77.052;2023-08-07T07:57:30;9.93;;;5.17;;
6523;SDS011;3295;38.928;-77.052;2023-08-07T07:59:57;8.73;;;4.30;;
6523;SDS011;3295;38.928;-77.052;2023-08-07T08:02:24;8.20;;;4.53;;
6523;SDS011;3295;38.928;-77.052;2023-08-07T08:04:51;9.27;;;4.80;;
6523;SDS011;3295;38.928;-77.052;2023-08-07T08:07:19;7.37;;;4.47;;
6523;SDS011;3295;38.928;-77.052;2023-08-07T08:09:46;7.23;;;3.87;;
6523;SDS011;3295;38.928;-77.052;2023-08-07T08:12:14;7.17;;;4.33;;
6523;SDS011;3295;38.928;-77.052;2023-08-07T08:14:43;7.33;;;3.97;;
6523;SDS011;3295;38.928;-77.052;2023-08-07T08:17:11;9.10;;;4.60;;
6523;SDS011;3295;38.928;-77.052;2023-08-07T08:19:38;7.87;;;4.40;;
6523;SDS011;3295;38.928;-77.052;2023-08-07T08:22:05;8.23;;;4.40;;
6523;SDS011;3295;38.928;-77.052;2023-08-07T08:24:32;9.43;;;4.53;;
6523;SDS011;3295;38.928;-77.052;2023-08-07T08:27:00;7.20;;;3.80;;
6523;SDS011;3295;38.928;-77.052;2023-08-07T08:29:27;7.63;;;4.10;;
6523;SDS011;3295;38.928;-77.052;2023-08-07T08:31:56;8.53;;;4.47;;
6523;SDS011;3295;38.928;-77.052;2023-08-07T08:34:25;7.87;;;4.10;;
6523;SDS011;3295;38.928;-77.052;2023-08-07T08:36:52;7.63;;;4.20;;
6523;SDS011;3295;38.928;-77.052;2023-08-07T08:39:20;7.40;;;4.20;;
6523;SDS011;3295;38.928;-77.052;2023-08-07T08:41:47;6.53;;;3.80;;
6523;SDS011;3295;38.928;-77.052;2023-08-07T08:44:14;7.60;;;3.93;;
6523;SDS011;3295;38.928;-77.052;2023-08-07T08:46:43;5.97;;;3.60;;
6523;SDS011;3295;38.928;-77.052;2023-08-07T08:49:14;6.53;;;3.87;;
6523;SDS011;3295;38.928;-77.052;2023-08-07T08:51:43;5.40;;;3.60;;
6523;SDS011;3295;38.928;-77.052;2023-08-07T08:54:11;5.13;;;3.87;;
6523;SDS011;3295;38.928;-77.052;2023-08-07T08:56:38;6.27;;;3.93;;
6523;SDS011;3295;38.928;-77.052;2023-08-07T08:59:06;7.57;;;3.77;;
6523;SDS011;3295;38.928;-77.052;2023-08-07T09:01:34;7.77;;;4.40;;
6523;SDS011;3295;38.928;-77.052;2023-08-07T09:04:01;6.70;;;4.00;;
6523;SDS011;3295;38.928;-77.052;2023-08-07T09:06:32;5.83;;;3.60;;
6523;SDS011;3295;38.928;-77.052;2023-08-07T09:08:59;6.43;;;3.73;;
6523;SDS011;3295;38.928;-77.052;2023-08-07T09:11:27;7.90;;;4.10;;
6523;SDS011;3295;38.928;-77.052;2023-08-07T09:13:54;6.57;;;3.73;;
6523;SDS011;3295;38.928;-77.052;2023-08-07T09:16:23;6.40;;;3.80;;
6523;SDS011;3295;38.928;-77.052;2023-08-07T09:18:50;7.43;;;4.13;;
6523;SDS011;3295;38.928;-77.052;2023-08-07T09:21:19;7.20;;;4.00;;
6523;SDS011;3295;38.928;-77.052;2023-08-07T09:23:49;6.63;;;3.57;;
6523;SDS011;3295;38.928;-77.052;2023-08-07T09:26:21;6.13;;;3.67;;
6523;SDS011;3295;38.928;-77.052;2023-08-07T09:28:50;7.17;;;3.70;;
6523;SDS011;3295;38.928;-77.052;2023-08-07T09:31:17;8.27;;;3.90;;
6523;SDS011;3295;38.928;-77.052;2023-08-07T09:33:46;5.97;;;3.30;;
6523;SDS011;3295;38.928;-77.052;2023-08-07T09:36:13;6.73;;;3.83;;
6523;SDS011;3295;38.928;-77.052;2023-08-07T09:38:42;7.13;;;3.80;;
6523;SDS011;3295;38.928;-77.052;2023-08-07T09:41:11;6.70;;;3.83;;
6523;SDS011;3295;38.928;-77.052;2023-08-07T09:43:38;7.83;;;3.70;;
6523;SDS011;3295;38.928;-77.052;2023-08-07T09:46:06;6.47;;;3.57;;
6523;SDS011;3295;38.928;-77.052;2023-08-07T09:48:38;8.07;;;4.30;;
6523;SDS011;3295;38.928;-77.052;2023-08-07T09:51:06;6.90;;;3.93;;
6523;SDS011;3295;38.928;-77.052;2023-08-07T09:53:33;6.57;;;3.97;;
6523;SDS011;3295;38.928;-77.052;2023-08-07T09:56:01;5.80;;;3.63;;
6523;SDS011;3295;38.928;-77.052;2023-08-07T09:58:30;9.13;;;3.90;;
6523;SDS011;3295;38.928;-77.052;2023-08-07T10:00:58;6.17;;;3.77;;
6523;SDS011;3295;38.928;-77.052;2023-08-07T10:03:26;9.30;;;4.03;;
6523;SDS011;3295;38.928;-77.052;2023-08-07T10:05:53;7.33;;;3.87;;
6523;SDS011;3295;38.928;-77.052;2023-08-07T10:08:21;10.67;;;3.97;;
6523;SDS011;3295;38.928;-77.052;2023-08-07T10:10:49;8.03;;;4.00;;
6523;SDS011;3295;38.928;-77.052;2023-08-07T10:13:16;9.83;;;4.70;;
6523;SDS011;3295;38.928;-77.052;2023-08-07T10:15:46;8.03;;;4.27;;
6523;SDS011;3295;38.928;-77.052;2023-08-07T10:18:14;13.63;;;4.40;;
6523;SDS011;3295;38.928;-77.052;2023-08-07T10:20:42;6.83;;;4.13;;
6523;SDS011;3295;38.928;-77.052;2023-08-07T10:23:10;6.30;;;3.73;;
6523;SDS011;3295;38.928;-77.052;2023-08-07T10:25:38;6.90;;;4.13;;
6523;SDS011;3295;38.928;-77.052;2023-08-07T10:28:07;8.07;;;4.07;;
6523;SDS011;3295;38.928;-77.052;2023-08-07T10:30:35;8.23;;;4.23;;
6523;SDS011;3295;38.928;-77.052;2023-08-07T10:33:04;7.07;;;4.20;;
6523;SDS011;3295;38.928;-77.052;2023-08-07T10:35:32;8.43;;;3.90;;
6523;SDS011;3295;38.928;-77.052;2023-08-07T10:38:05;6.60;;;3.83;;
6523;SDS011;3295;38.928;-77.052;2023-08-07T10:40:32;8.30;;;4.43;;
6523;SDS011;3295;38.928;-77.052;2023-08-07T10:43:00;7.20;;;3.97;;
6523;SDS011;3295;38.928;-77.052;2023-08-07T10:45:38;6.13;;;3.83;;
6523;SDS011;3295;38.928;-77.052;2023-08-07T10:48:07;8.93;;;4.60;;
6523;SDS011;3295;38.928;-77.052;2023-08-07T10:50:35;7.33;;;3.70;;
6523;SDS011;3295;38.928;-77.052;2023-08-07T10:53:18;6.53;;;4.00;;
6523;SDS011;3295;38.928;-77.052;2023-08-07T10:55:46;10.37;;;4.40;;
6523;SDS011;3295;38.928;-77.052;2023-08-07T10:58:23;7.93;;;4.40;;
6523;SDS011;3295;38.928;-77.052;2023-08-07T11:00:51;8.37;;;4.50;;
6523;SDS011;3295;38.928;-77.052;2023-08-07T11:03:29;8.83;;;4.23;;
6523;SDS011;3295;38.928;-77.052;2023-08-07T11:06:02;7.37;;;4.30;;
6523;SDS011;3295;38.928;-77.052;2023-08-07T11:08:30;8.20;;;4.23;;
6523;SDS011;3295;38.928;-77.052;2023-08-07T11:10:59;11.27;;;5.10;;
6523;SDS011;3295;38.928;-77.052;2023-08-07T11:13:30;7.27;;;4.23;;
6523;SDS011;3295;38.928;-77.052;2023-08-07T11:15:58;7.77;;;4.40;;
6523;SDS011;3295;38.928;-77.052;2023-08-07T11:18:26;6.37;;;4.03;;
6523;SDS011;3295;38.928;-77.052;2023-08-07T11:20:55;7.80;;;4.07;;
6523;SDS011;3295;38.928;-77.052;2023-08-07T11:23:25;9.03;;;4.73;;
6523;SDS011;3295;38.928;-77.052;2023-08-07T11:25:53;7.73;;;4.47;;
6523;SDS011;3295;38.928;-77.052;2023-08-07T11:28:20;8.47;;;4.70;;
6523;SDS011;3295;38.928;-77.052;2023-08-07T11:30:49;6.90;;;3.97;;
6523;SDS011;3295;38.928;-77.052;2023-08-07T11:33:17;8.73;;;4.30;;
6523;SDS011;3295;38.928;-77.052;2023-08-07T11:35:44;10.03;;;4.63;;
6523;SDS011;3295;38.928;-77.052;2023-08-07T11:38:16;8.87;;;4.57;;
6523;SDS011;3295;38.928;-77.052;2023-08-07T11:40:56;8.20;;;4.37;;
6523;SDS011;3295;38.928;-77.052;2023-08-07T11:43:23;7.97;;;4.30;;
6523;SDS011;3295;38.928;-77.052;2023-08-07T11:45:51;6.70;;;3.90;;
6523;SDS011;3295;38.928;-77.052;2023-08-07T11:48:19;7.10;;;4.23;;
6523;SDS011;3295;38.928;-77.052;2023-08-07T11:50:46;8.60;;;4.60;;
6523;SDS011;3295;38.928;-77.052;2023-08-07T11:53:16;8.03;;;4.30;;
6523;SDS011;3295;38.928;-77.052;2023-08-07T11:55:46;6.67;;;4.00;;
6523;SDS011;3295;38.928;-77.052;2023-08-07T11:58:14;7.73;;;4.33;;
6523;SDS011;3295;38.928;-77.052;2023-08-07T12:00:43;8.07;;;4.70;;
6523;SDS011;3295;38.928;-77.052;2023-08-07T12:03:24;7.47;;;4.27;;
6523;SDS011;3295;38.928;-77.052;2023-08-07T12:05:52;8.47;;;4.53;;
6523;SDS011;3295;38.928;-77.052;2023-08-07T12:08:21;8.47;;;4.60;;
6523;SDS011;3295;38.928;-77.052;2023-08-07T12:10:49;8.27;;;4.93;;
6523;SDS011;3295;38.928;-77.052;2023-08-07T12:13:19;8.43;;;4.47;;
6523;SDS011;3295;38.928;-77.052;2023-08-07T12:15:50;7.60;;;4.43;;
6523;SDS011;3295;38.928;-77.052;2023-08-07T12:18:18;7.67;;;4.73;;
6523;SDS011;3295;38.928;-77.052;2023-08-07T12:20:45;8.77;;;4.50;;
6523;SDS011;3295;38.928;-77.052;2023-08-07T12:23:15;8.40;;;4.57;;
6523;SDS011;3295;38.928;-77.052;2023-08-07T12:25:44;6.67;;;3.97;;
6523;SDS011;3295;38.928;-77.052;2023-08-07T12:28:11;8.40;;;4.73;;
6523;SDS011;3295;38.928;-77.052;2023-08-07T12:30:39;7.27;;;4.20;;
6523;SDS011;3295;38.928;-77.052;2023-08-07T12:33:06;8.40;;;4.37;;
6523;SDS011;3295;38.928;-77.052;2023-08-07T12:35:33;8.67;;;4.80;;
6523;SDS011;3295;38.928;-77.052;2023-08-07T12:38:01;7.70;;;3.80;;
6523;SDS011;3295;38.928;-77.052;2023-08-07T12:40:28;7.37;;;4.13;;
6523;SDS011;3295;38.928;-77.052;2023-08-07T12:42:57;5.47;;;3.73;;
6523;SDS011;3295;38.928;-77.052;2023-08-07T12:45:25;7.50;;;4.20;;
6523;SDS011;3295;38.928;-77.052;2023-08-07T12:47:52;7.33;;;4.20;;
6523;SDS011;3295;38.928;-77.052;2023-08-07T12:50:19;8.97;;;4.63;;
6523;SDS011;3295;38.928;-77.052;2023-08-07T12:52:47;8.50;;;4.27;;
6523;SDS011;3295;38.928;-77.052;2023-08-07T12:55:14;7.37;;;4.10;;
6523;SDS011;3295;38.928;-77.052;2023-08-07T12:57:41;9.23;;;4.03;;
6523;SDS011;3295;38.928;-77.052;2023-08-07T13:00:11;6.67;;;3.80;;
6523;SDS011;3295;38.928;-77.052;2023-08-07T13:02:40;6.77;;;3.70;;
6523;SDS011;3295;38.928;-77.052;2023-08-07T13:05:07;6.97;;;3.70;;
6523;SDS011;3295;38.928;-77.052;2023-08-07T13:07:35;9.60;;;3.80;;
6523;SDS011;3295;38.928;-77.052;2023-08-07T13:10:04;9.30;;;4.10;;
6523;SDS011;3295;38.928;-77.052;2023-08-07T13:12:33;7.50;;;4.17;;
6523;SDS011;3295;38.928;-77.052;2023-08-07T13:15:00;6.57;;;3.83;;
6523;SDS011;3295;38.928;-77.052;2023-08-07T13:17:29;7.93;;;4.23;;
6523;SDS011;3295;38.928;-77.052;2023-08-07T13:19:57;7.00;;;3.90;;
6523;SDS011;3295;38.928;-77.052;2023-08-07T13:22:24;6.83;;;4.40;;
6523;SDS011;3295;38.928;-77.052;2023-08-07T13:24:52;7.83;;;3.83;;
6523;SDS011;3295;38.928;-77.052;2023-08-07T13:27:19;6.50;;;3.50;;
6523;SDS011;3295;38.928;-77.052;2023-08-07T13:29:47;5.87;;;3.50;;
6523;SDS011;3295;38.928;-77.052;2023-08-07T13:32:14;7.57;;;3.97;;
6523;SDS011;3295;38.928;-77.052;2023-08-07T13:34:45;8.23;;;3.90;;
6523;SDS011;3295;38.928;-77.052;2023-08-07T13:37:13;7.93;;;4.27;;
6523;SDS011;3295;38.928;-77.052;2023-08-07T13:39:41;6.67;;;3.97;;
6523;SDS011;3295;38.928;-77.052;2023-08-07T13:42:08;8.30;;;3.97;;
6523;SDS011;3295;38.928;-77.052;2023-08-07T13:44:36;8.13;;;3.90;;
6523;SDS011;3295;38.928;-77.052;2023-08-07T13:47:04;6.63;;;3.87;;
6523;SDS011;3295;38.928;-77.052;2023-08-07T13:49:31;5.27;;;3.43;;
6523;SDS011;3295;38.928;-77.052;2023-08-07T13:52:00;6.90;;;4.07;;
6523;SDS011;3295;38.928;-77.052;2023-08-07T13:54:27;7.87;;;4.00;;
6523;SDS011;3295;38.928;-77.052;2023-08-07T13:56:55;6.43;;;3.40;;
6523;SDS011;3295;38.928;-77.052;2023-08-07T13:59:22;8.33;;;3.80;;
6523;SDS011;3295;38.928;-77.052;2023-08-07T14:01:49;6.03;;;3.77;;
6523;SDS011;3295;38.928;-77.052;2023-08-07T14:04:17;6.60;;;3.90;;
6523;SDS011;3295;38.928;-77.052;2023-08-07T14:06:46;7.17;;;4.07;;
6523;SDS011;3295;38.928;-77.052;2023-08-07T14:09:14;7.77;;;3.90;;
6523;SDS011;3295;38.928;-77.052;2023-08-07T14:11:43;9.20;;;3.90;;
6523;SDS011;3295;38.928;-77.052;2023-08-07T14:14:11;7.03;;;3.90;;
6523;SDS011;3295;38.928;-77.052;2023-08-07T14:16:38;7.67;;;3.93;;
6523;SDS011;3295;38.928;-77.052;2023-08-07T14:19:05;6.67;;;3.87;;
6523;SDS011;3295;38.928;-77.052;2023-08-07T14:21:33;7.93;;;4.27;;
6523;SDS011;3295;38.928;-77.052;2023-08-07T14:24:01;6.63;;;4.03;;
6523;SDS011;3295;38.928;-77.052;2023-08-07T14:26:30;8.13;;;4.40;;
6523;SDS011;3295;38.928;-77.052;2023-08-07T14:28:57;6.93;;;3.80;;
6523;SDS011;3295;38.928;-77.052;2023-08-07T14:31:24;6.00;;;3.67;;
6523;SDS011;3295;38.928;-77.052;2023-08-07T14:33:51;7.80;;;4.00;;
6523;SDS011;3295;38.928;-77.052;2023-08-07T14:36:18;7.73;;;4.10;;
6523;SDS011;3295;38.928;-77.052;2023-08-07T14:38:46;8.30;;;4.40;;
6523;SDS011;3295;38.928;-77.052;2023-08-07T14:41:13;6.20;;;3.80;;
6523;SDS011;3295;38.928;-77.052;2023-08-07T14:43:42;7.30;;;4.23;;
6523;SDS011;3295;38.928;-77.052;2023-08-07T14:46:09;7.40;;;4.37;;
6523;SDS011;3295;38.928;-77.052;2023-08-07T14:48:36;7.00;;;4.27;;
6523;SDS011;3295;38.928;-77.052;2023-08-07T14:51:03;7.60;;;4.17;;